Time;durP1;ratioP1;P1;durP2;ratioP2;P2;SDS_P1;SDS_P2;PMS_P1;PMS_P2;Temp;Humidity;BMP_temperature;BMP_pressure;BME280_temperature;BME280_humidity;BME280_pressure;Samples;Min_cycle;Max_cycle;Signal;HPM_P1;HPM_P2
2022/05/22 00:00:30;;;;;;;6.80;1.42;;;16.80;88.90;;;;;;4965317;28;20031;-79
2022/05/22 00:02:56;;;;;;;3.50;1.50;;;16.80;89.00;;;;;;4960869;28;20027;-80
2022/05/22 00:05:24;;;;;;;2.67;1.20;;;16.70;89.00;;;;;;4963119;28;20027;-79
2022/05/22 00:07:50;;;;;;;5.10;1.83;;;16.70;89.30;;;;;;4961370;28;20075;-80
2022/05/22 00:10:16;;;;;;;6.55;1.55;;;16.70;89.30;;;;;;4960881;28;20476;-80
2022/05/22 00:12:42;;;;;;;3.78;1.60;;;16.70;89.10;;;;;;4960351;28;20075;-79
2022/05/22 00:15:11;;;;;;;7.88;1.52;;;16.70;89.00;;;;;;4959553;29;20039;-79
2022/05/22 00:17:36;;;;;;;3.35;1.60;;;16.80;89.50;;;;;;4963227;28;20058;-79
2022/05/22 00:20:04;;;;;;;1.67;1.25;;;16.80;89.60;;;;;;4966374;28;20097;-80
2022/05/22 00:22:31;;;;;;;2.00;1.30;;;16.80;89.80;;;;;;4966843;28;20039;-79
2022/05/22 00:24:57;;;;;;;5.13;1.63;;;16.90;90.00;;;;;;4971627;28;20103;-79
2022/05/22 00:27:23;;;;;;;3.83;1.63;;;16.90;90.00;;;;;;4974924;28;20047;-78
2022/05/22 00:29:48;;;;;;;7.38;1.60;;;16.90;90.00;;;;;;4973354;28;20028;-78
2022/05/22 00:32:14;;;;;;;5.40;1.83;;;16.90;90.00;;;;;;4970382;28;20046;-79
2022/05/22 00:34:40;;;;;;;3.85;1.60;;;17.00;90.00;;;;;;4972029;29;20027;-79
2022/05/22 00:37:06;;;;;;;3.45;1.63;;;17.00;90.20;;;;;;4976759;28;20027;-78
2022/05/22 00:39:33;;;;;;;6.25;1.30;;;17.00;90.20;;;;;;4965499;28;20043;-79
2022/05/22 00:41:59;;;;;;;4.43;1.65;;;17.00;90.30;;;;;;4966120;29;20023;-77
2022/05/22 00:44:25;;;;;;;3.17;1.35;;;17.00;90.30;;;;;;4964510;29;20484;-79
2022/05/22 00:46:51;;;;;;;3.42;1.30;;;17.10;90.30;;;;;;4946403;29;20147;-80
2022/05/22 00:49:25;;;;;;;5.05;1.67;;;17.10;90.20;;;;;;4959316;28;20023;-81
2022/05/22 00:52:09;;;;;;;2.20;1.70;;;17.00;90.20;;;;;;4960752;28;20628;-79
2022/05/22 00:54:43;;;;;;;2.25;1.50;;;17.00;90.40;;;;;;4962152;29;20644;-79
2022/05/22 00:57:18;;;;;;;3.03;1.90;;;16.90;90.40;;;;;;4958931;29;20058;-79
2022/05/22 00:59:48;;;;;;;4.97;1.90;;;16.90;90.40;;;;;;4959506;28;20040;-80
2022/05/22 01:02:15;;;;;;;2.47;1.50;;;16.80;90.60;;;;;;4963242;29;20099;-78
2022/05/22 01:04:44;;;;;;;2.45;1.58;;;16.80;90.70;;;;;;4964046;29;20032;-79
2022/05/22 01:07:11;;;;;;;5.47;1.70;;;16.70;90.70;;;;;;4963758;28;20097;-80
2022/05/22 01:09:36;;;;;;;3.60;1.38;;;16.70;90.80;;;;;;4962245;28;20019;-79
2022/05/22 01:12:17;;;;;;;2.35;1.60;;;16.70;91.00;;;;;;4963658;29;20110;-78
2022/05/22 01:14:48;;;;;;;3.88;1.63;;;16.60;91.20;;;;;;4965184;29;20031;-80
2022/05/22 01:17:15;;;;;;;3.60;1.58;;;16.60;91.30;;;;;;4963503;28;20130;-80
2022/05/22 01:19:41;;;;;;;4.45;1.60;;;16.50;91.40;;;;;;4963736;28;20043;-80
2022/05/22 01:22:10;;;;;;;2.33;1.50;;;16.50;91.50;;;;;;4946906;29;20031;-80
2022/05/22 01:24:40;;;;;;;4.18;1.88;;;16.50;91.70;;;;;;4961772;29;20032;-78
2022/05/22 01:27:13;;;;;;;3.10;1.83;;;16.40;91.90;;;;;;4945813;29;20038;-79
2022/05/22 01:29:45;;;;;;;5.63;1.88;;;16.40;92.00;;;;;;4963983;28;20423;-79
2022/05/22 01:32:11;;;;;;;5.50;1.60;;;16.30;92.10;;;;;;4961178;28;20038;-79
2022/05/22 01:34:39;;;;;;;2.72;1.70;;;16.20;92.40;;;;;;4961613;29;20479;-79
2022/05/22 01:37:05;;;;;;;3.58;1.80;;;16.20;92.60;;;;;;4963141;29;20042;-78
2022/05/22 01:39:33;;;;;;;7.40;1.80;;;16.20;92.70;;;;;;4963594;28;20479;-79
2022/05/22 01:41:58;;;;;;;3.10;1.65;;;16.20;92.90;;;;;;4967575;29;20032;-78
2022/05/22 01:44:25;;;;;;;3.70;1.65;;;16.10;93.20;;;;;;4963784;29;20027;-79
2022/05/22 01:46:52;;;;;;;2.75;1.63;;;16.10;93.30;;;;;;4957437;28;20090;-79
2022/05/22 01:49:21;;;;;;;16.30;2.10;;;16.00;93.90;;;;;;4959262;28;20024;-78
2022/05/22 01:51:47;;;;;;;3.60;2.30;;;15.90;94.60;;;;;;4963101;29;20051;-79
2022/05/22 01:54:14;;;;;;;5.05;1.83;;;15.90;95.10;;;;;;4964215;29;20027;-78
2022/05/22 01:56:41;;;;;;;3.30;1.35;;;15.90;95.60;;;;;;4961230;29;20038;-78
2022/05/22 01:59:08;;;;;;;2.08;1.60;;;15.80;96.10;;;;;;4959939;28;20398;-79
2022/05/22 02:01:37;;;;;;;3.13;1.70;;;15.80;96.70;;;;;;4962298;28;20110;-79
2022/05/22 02:04:05;;;;;;;4.95;1.90;;;15.80;96.70;;;;;;4961743;28;20082;-79
2022/05/22 02:06:35;;;;;;;5.22;2.20;;;15.70;97.00;;;;;;4967162;29;20443;-79
2022/05/22 02:09:11;;;;;;;5.05;1.80;;;15.70;97.20;;;;;;4965456;28;20034;-79
2022/05/22 02:11:45;;;;;;;5.83;2.20;;;15.70;97.80;;;;;;4965425;29;20062;-78
2022/05/22 02:14:14;;;;;;;3.90;2.10;;;15.60;97.10;;;;;;4964926;28;20099;-79
2022/05/22 02:16:41;;;;;;;4.05;1.70;;;15.60;97.30;;;;;;4966043;28;20030;-78
2022/05/22 02:19:07;;;;;;;3.33;1.67;;;15.60;97.30;;;;;;4967172;28;20043;-78
2022/05/22 02:21:33;;;;;;;3.92;1.60;;;15.60;97.50;;;;;;4967079;29;20062;-78
2022/05/22 02:23:59;;;;;;;4.50;1.85;;;15.60;97.30;;;;;;4966820;28;20043;-79
2022/05/22 02:26:24;;;;;;;5.40;1.60;;;15.70;97.10;;;;;;4966304;29;20024;-78
2022/05/22 02:28:50;;;;;;;4.53;1.40;;;15.70;96.70;;;;;;4969080;28;20027;-78
2022/05/22 02:31:16;;;;;;;2.22;1.65;;;15.80;96.40;;;;;;4968610;28;20020;-79
2022/05/22 02:33:51;;;;;;;3.65;1.50;;;15.80;96.20;;;;;;4971357;29;20059;-80
2022/05/22 02:36:17;;;;;;;3.88;1.58;;;15.90;96.10;;;;;;4975480;28;20037;-78
2022/05/22 02:38:46;;;;;;;4.20;1.85;;;15.90;96.10;;;;;;4972624;28;20086;-79
2022/05/22 02:41:16;;;;;;;3.65;1.70;;;15.90;96.10;;;;;;4972038;29;20046;-78
2022/05/22 02:43:49;;;;;;;1.90;1.58;;;15.90;96.40;;;;;;4964578;29;20039;-78
2022/05/22 02:46:17;;;;;;;3.10;1.63;;;15.90;96.20;;;;;;4963408;28;20059;-79
2022/05/22 02:48:43;;;;;;;4.53;1.58;;;16.00;96.40;;;;;;4964408;28;20027;-79
2022/05/22 02:51:15;;;;;;;8.32;1.60;;;16.00;96.40;;;;;;4967657;28;20089;-79
2022/05/22 02:53:43;;;;;;;2.30;1.42;;;16.00;96.60;;;;;;4977374;28;20019;-80
2022/05/22 02:56:17;;;;;;;2.38;1.58;;;16.00;96.50;;;;;;4966421;28;20074;-79
2022/05/22 02:59:03;;;;;;;3.70;1.50;;;16.00;96.70;;;;;;4948321;28;20028;-79
2022/05/22 03:01:37;;;;;;;8.27;1.80;;;16.00;96.80;;;;;;4945866;29;20054;-82
2022/05/22 03:04:04;;;;;;;3.97;1.85;;;16.00;96.80;;;;;;4960933;28;20070;-80
2022/05/22 03:06:38;;;;;;;3.60;1.58;;;16.00;96.90;;;;;;4959882;29;20034;-79
2022/05/22 03:09:11;;;;;;;;;;;16.00;97.00;;;;;;4960418;28;20024;-79
2022/05/22 03:11:39;;;;;;;3.67;1.70;;;16.00;97.00;;;;;;4960235;29;19966;-81
2022/05/22 03:14:05;;;;;;;3.90;1.73;;;15.90;97.00;;;;;;4963036;28;20034;-79
2022/05/22 03:16:31;;;;;;;5.78;2.10;;;15.90;97.20;;;;;;4973325;28;20042;-78
2022/05/22 03:19:26;;;;;;;2.47;1.83;;;15.90;97.10;;;;;;4971873;28;20031;-78
2022/05/22 03:21:52;;;;;;;3.25;1.70;;;15.90;97.00;;;;;;4979860;28;20031;-79
2022/05/22 03:24:18;;;;;;;4.45;1.80;;;15.80;96.90;;;;;;4979822;28;20056;-78
2022/05/22 03:26:51;;;;;;;3.63;2.08;;;15.80;96.90;;;;;;4980547;28;20030;-77
2022/05/22 03:29:17;;;;;;;7.35;2.35;;;15.80;97.10;;;;;;4979818;28;20027;-77
2022/05/22 03:31:43;;;;;;;2.22;1.60;;;15.70;97.30;;;;;;4980119;28;20969;-77
2022/05/22 03:34:09;;;;;;;4.93;2.00;;;15.70;97.70;;;;;;4980069;28;20102;-78
2022/05/22 03:36:41;;;;;;;6.03;1.60;;;15.70;97.50;;;;;;4979978;28;20015;-78
2022/05/22 03:39:08;;;;;;;3.13;1.80;;;15.70;97.60;;;;;;4966797;28;20483;-81
2022/05/22 03:41:35;;;;;;;3.75;1.80;;;15.80;97.50;;;;;;4949527;29;20381;-79
2022/05/22 03:44:01;;;;;;;6.10;1.88;;;15.80;97.50;;;;;;4951414;29;20039;-79
2022/05/22 03:46:32;;;;;;;3.20;1.50;;;15.80;97.40;;;;;;4972277;29;20081;-79
2022/05/22 03:48:58;;;;;;;2.83;1.60;;;15.90;97.30;;;;;;4973307;28;20043;-78
2022/05/22 03:51:31;;;;;;;5.30;1.90;;;15.90;97.20;;;;;;4978522;28;20039;-79
2022/05/22 03:53:58;;;;;;;4.80;1.77;;;15.90;96.90;;;;;;4979510;28;20034;-79
2022/05/22 03:56:29;;;;;;;3.03;1.60;;;16.00;97.00;;;;;;4964224;28;20104;-77
2022/05/22 03:58:55;;;;;;;5.95;1.80;;;16.00;96.80;;;;;;4979200;28;20087;-77
2022/05/22 04:01:21;;;;;;;3.50;1.60;;;16.10;96.70;;;;;;4979665;28;20021;-78
2022/05/22 04:03:54;;;;;;;6.25;1.50;;;16.10;96.90;;;;;;4979191;28;20039;-77
2022/05/22 04:06:23;;;;;;;5.05;1.73;;;16.10;96.80;;;;;;4971247;29;20031;-80
2022/05/22 04:08:49;;;;;;;3.42;1.58;;;16.10;96.70;;;;;;4968168;28;20038;-78
2022/05/22 04:11:18;;;;;;;3.15;1.40;;;16.20;96.60;;;;;;4968245;28;20027;-81
2022/05/22 04:13:46;;;;;;;5.70;2.10;;;16.20;96.50;;;;;;4964969;28;20019;-79
2022/05/22 04:16:13;;;;;;;4.38;2.08;;;16.20;97.00;;;;;;4964776;28;20028;-78
2022/05/22 04:18:39;;;;;;;4.57;1.63;;;16.20;96.90;;;;;;4961030;28;20158;-81
2022/05/22 04:21:09;;;;;;;2.22;1.67;;;16.20;96.20;;;;;;4960943;28;20038;-80
2022/05/22 04:26:39;;;;;;;4.03;2.00;;;16.30;96.00;;;;;;4960870;28;20034;-78
2022/05/22 04:29:08;;;;;;;5.40;1.88;;;16.30;95.70;;;;;;4961088;28;20027;-80
2022/05/22 04:31:35;;;;;;;3.30;1.90;;;16.40;95.50;;;;;;4960464;28;20031;-79
2022/05/22 04:34:18;;;;;;;5.15;2.10;;;16.40;95.60;;;;;;4963756;29;20023;-78
2022/05/22 04:36:44;;;;;;;4.28;2.17;;;16.50;95.30;;;;;;4963854;28;20047;-78
2022/05/22 04:39:23;;;;;;;4.10;1.75;;;16.70;95.50;;;;;;4962223;28;20030;-79
2022/05/22 04:41:58;;;;;;;5.97;2.03;;;16.80;95.10;;;;;;4960365;29;20126;-80
2022/05/22 04:44:25;;;;;;;5.95;2.05;;;16.90;94.70;;;;;;4961430;29;20028;-79
2022/05/22 04:47:02;;;;;;;4.55;2.17;;;17.00;94.60;;;;;;4964006;29;20024;-83
2022/05/22 04:49:28;;;;;;;3.92;1.67;;;17.00;94.60;;;;;;4966618;28;20039;-83
2022/05/22 04:51:58;;;;;;;5.68;1.90;;;17.10;94.30;;;;;;4967619;28;20082;-83
2022/05/22 04:54:24;;;;;;;4.25;1.92;;;17.20;94.40;;;;;;4967508;29;20037;-85
2022/05/22 04:57:01;;;;;;;7.18;2.47;;;17.20;94.40;;;;;;4973364;29;20022;-82
2022/05/22 04:59:27;;;;;;;6.95;2.33;;;17.40;94.40;;;;;;4976696;28;20027;-82
2022/05/22 05:01:53;;;;;;;6.32;2.13;;;17.50;94.20;;;;;;4959587;29;20033;-81
2022/05/22 05:04:32;;;;;;;3.58;2.28;;;17.60;94.00;;;;;;4974058;29;20035;-82
2022/05/22 05:07:06;;;;;;;5.18;2.05;;;17.70;93.60;;;;;;4973533;29;20506;-80
2022/05/22 05:09:58;;;;;;;4.03;2.28;;;17.80;93.00;;;;;;4969418;28;20117;-83
2022/05/22 05:12:48;;;;;;;7.15;2.50;;;17.90;92.90;;;;;;4966859;29;20054;-83
2022/05/22 05:15:24;;;;;;;8.45;2.42;;;17.80;93.10;;;;;;4965548;29;20042;-83
2022/05/22 05:17:58;;;;;;;5.60;2.30;;;17.70;93.20;;;;;;4949072;29;20574;-82
2022/05/22 05:20:25;;;;;;;7.00;2.55;;;17.80;92.70;;;;;;4964959;28;20019;-83
2022/05/22 05:22:57;;;;;;;5.65;2.60;;;17.80;92.70;;;;;;4965961;29;20027;-82
2022/05/22 05:25:35;;;;;;;7.45;2.13;;;17.80;92.80;;;;;;4967883;29;20020;-80
2022/05/22 05:28:02;;;;;;;4.68;2.50;;;17.80;92.90;;;;;;4975812;28;20034;-82
2022/05/22 05:30:27;;;;;;;6.15;2.22;;;17.90;93.00;;;;;;4952110;29;20126;-82
2022/05/22 05:32:56;;;;;;;4.53;2.55;;;17.90;93.10;;;;;;4967255;28;20023;-81
2022/05/22 05:35:54;;;;;;;4.90;2.25;;;18.00;93.10;;;;;;4953151;28;20047;-80
2022/05/22 05:38:40;;;;;;;7.88;2.65;;;18.00;92.90;;;;;;4969846;28;20065;-80
2022/05/22 05:41:07;;;;;;;6.32;2.55;;;18.00;92.80;;;;;;4971526;28;20027;-81
2022/05/22 05:43:34;;;;;;;4.63;2.35;;;17.90;92.90;;;;;;4954274;29;20032;-81
2022/05/22 05:45:59;;;;;;;4.45;2.45;;;17.90;93.10;;;;;;4970169;29;20195;-83
2022/05/22 05:48:25;;;;;;;6.40;2.90;;;17.90;93.30;;;;;;4968906;29;20062;-83
2022/05/22 05:50:55;;;;;;;13.27;2.80;;;17.90;93.40;;;;;;4965642;28;20031;-82
2022/05/22 05:53:35;;;;;;;4.43;2.50;;;18.00;93.40;;;;;;4950776;29;20035;-82
2022/05/22 05:56:40;;;;;;;7.38;2.65;;;18.10;93.40;;;;;;4964886;28;20035;-82
2022/05/22 05:59:19;;;;;;;5.65;2.72;;;18.00;93.40;;;;;;4963998;28;20031;-80
2022/05/22 06:01:56;;;;;;;9.10;2.78;;;18.10;93.50;;;;;;4964974;29;20042;-82
2022/05/22 06:04:22;;;;;;;8.57;2.42;;;18.20;93.40;;;;;;4972210;28;20087;-83
2022/05/22 06:06:48;;;;;;;9.18;3.03;;;18.20;93.60;;;;;;4980196;28;20054;-84
2022/05/22 06:09:14;;;;;;;7.45;3.03;;;18.20;93.50;;;;;;4983183;28;20123;-79
2022/05/22 06:12:03;;;;;;;4.07;2.50;;;18.20;93.00;;;;;;4995284;28;20015;-80
2022/05/22 06:14:50;;;;;;;8.23;3.10;;;18.20;93.20;;;;;;4980624;28;20042;-82
2022/05/22 06:17:35;;;;;;;4.70;2.40;;;18.20;93.20;;;;;;4981615;28;20035;-82
2022/05/22 06:20:03;;;;;;;9.55;2.78;;;18.30;93.20;;;;;;4985060;28;20100;-82
2022/05/22 06:22:34;;;;;;;7.10;2.55;;;18.50;93.00;;;;;;4978918;28;20160;-83
2022/05/22 06:25:06;;;;;;;6.57;2.78;;;18.60;92.70;;;;;;4977518;28;20127;-83
2022/05/22 06:28:17;;;;;;;8.25;2.97;;;18.60;92.40;;;;;;4972054;28;20036;-82
2022/05/22 06:31:04;;;;;;;7.05;2.72;;;18.60;92.10;;;;;;4972363;28;20078;-83
2022/05/22 06:34:04;;;;;;;8.32;2.72;;;18.70;92.20;;;;;;4919608;29;20044;-81
2022/05/22 06:37:04;;;;;;;4.93;2.47;;;18.70;91.90;;;;;;4964041;28;20106;-82
2022/05/22 06:39:54;;;;;;;8.82;2.40;;;18.90;91.70;;;;;;4959945;28;20035;-83
2022/05/22 06:42:36;;;;;;;5.97;2.35;;;19.00;91.40;;;;;;5007325;28;20552;-82
2022/05/22 06:45:34;;;;;;;3.72;2.05;;;19.20;91.60;;;;;;4975883;28;20047;-82
2022/05/22 06:48:03;;;;;;;4.85;2.33;;;19.40;90.90;;;;;;4978553;28;20042;-84
2022/05/22 06:51:07;;;;;;;4.53;2.03;;;19.50;90.70;;;;;;4957325;28;20026;-83
2022/05/22 06:54:03;;;;;;;6.22;2.20;;;19.60;90.70;;;;;;4982455;28;20011;-83
2022/05/22 06:56:51;;;;;;;7.78;2.80;;;19.80;90.50;;;;;;4989423;28;20134;-84
2022/05/22 06:59:17;;;;;;;9.80;2.17;;;19.90;90.60;;;;;;4980136;28;20042;-84
2022/05/22 07:02:04;;;;;;;11.52;2.95;;;20.00;90.40;;;;;;4962879;28;20491;-84
2022/05/22 07:04:50;;;;;;;7.97;2.75;;;20.10;90.40;;;;;;4973788;28;20053;-84
2022/05/22 07:07:55;;;;;;;7.25;2.97;;;20.10;90.70;;;;;;4914153;29;20072;-84
2022/05/22 07:14:18;;;;;;;8.98;2.83;;;20.30;90.00;;;;;;4945836;29;20086;-82
2022/05/22 07:17:09;;;;;;;5.65;2.67;;;20.50;90.00;;;;;;4943914;29;20067;-83
2022/05/22 07:19:55;;;;;;;4.25;2.33;;;20.50;88.40;;;;;;4963728;28;20050;-85
2022/05/22 07:22:40;;;;;;;9.80;2.45;;;20.50;88.70;;;;;;4967357;29;20053;-85
2022/05/22 07:25:34;;;;;;;7.83;2.80;;;20.50;89.20;;;;;;4930920;28;20044;-83
2022/05/22 07:28:20;;;;;;;3.37;2.23;;;20.60;89.10;;;;;;4966264;29;20310;-86
2022/05/22 07:31:16;;;;;;;4.95;2.47;;;20.80;88.10;;;;;;4962203;28;20039;-84
2022/05/22 07:33:58;;;;;;;6.18;3.03;;;20.80;88.70;;;;;;4979462;28;20029;-83
2022/05/22 07:36:54;;;;;;;7.78;2.58;;;20.80;89.10;;;;;;4975056;29;20042;-83
2022/05/22 07:39:38;;;;;;;6.15;2.30;;;20.80;88.00;;;;;;4967242;28;20519;-81
2022/05/22 07:42:21;;;;;;;11.27;2.65;;;21.00;87.20;;;;;;4990465;28;20041;-81
2022/05/22 07:45:15;;;;;;;4.60;2.63;;;21.30;85.20;;;;;;4986592;28;20043;-85
2022/05/22 07:48:05;;;;;;;7.82;2.47;;;21.50;85.90;;;;;;4984799;28;20027;-85
2022/05/22 07:50:38;;;;;;;6.03;2.25;;;21.80;85.40;;;;;;4987902;28;20037;-83
2022/05/22 07:53:41;;;;;;;6.22;2.50;;;21.80;83.90;;;;;;5001988;28;20569;-82
2022/05/22 07:56:26;;;;;;;6.07;2.17;;;21.70;82.90;;;;;;5007476;28;20513;-84
2022/05/22 07:59:12;;;;;;;5.00;2.53;;;21.80;83.40;;;;;;4984580;28;20043;-84
2022/05/22 08:02:07;;;;;;;5.68;2.13;;;22.10;82.80;;;;;;4997560;28;20030;-84
2022/05/22 08:04:37;;;;;;;7.53;2.38;;;22.40;81.90;;;;;;5003554;28;20062;-82
2022/05/22 08:07:21;;;;;;;5.18;2.03;;;22.40;82.00;;;;;;5004816;28;20037;-83
2022/05/22 08:09:55;;;;;;;5.57;2.53;;;22.40;82.00;;;;;;5009066;28;20050;-82
2022/05/22 08:12:21;;;;;;;6.78;2.33;;;22.60;80.80;;;;;;5002610;28;20034;-83
2022/05/22 08:14:49;;;;;;;6.20;2.50;;;22.40;81.00;;;;;;4972828;28;20030;-82
2022/05/22 08:17:21;;;;;;;5.68;2.58;;;22.40;81.30;;;;;;4989875;28;20031;-82
2022/05/22 08:19:51;;;;;;;5.55;2.70;;;22.30;80.50;;;;;;4988770;28;20038;-80
2022/05/22 08:22:24;;;;;;;7.72;2.10;;;22.20;80.60;;;;;;4988574;28;20103;-83
2022/05/22 08:25:17;;;;;;;5.95;2.30;;;22.00;81.90;;;;;;4989412;28;20035;-82
2022/05/22 08:27:43;;;;;;;5.07;2.40;;;21.90;81.80;;;;;;4989204;28;20067;-83
2022/05/22 08:30:12;;;;;;;4.20;2.53;;;21.70;82.40;;;;;;4989204;28;20043;-82
2022/05/22 08:32:49;;;;;;;6.40;2.42;;;21.80;82.60;;;;;;4985784;28;20030;-82
2022/05/22 08:35:19;;;;;;;7.53;2.53;;;21.80;82.60;;;;;;4971934;28;20031;-79
2022/05/22 08:37:45;;;;;;;5.38;2.03;;;22.00;82.70;;;;;;4977817;28;20027;-80
2022/05/22 08:40:15;;;;;;;5.28;2.72;;;22.20;82.70;;;;;;4980304;28;20033;-80
2022/05/22 08:42:49;;;;;;;6.80;2.53;;;22.40;83.50;;;;;;4980905;28;20038;-81
2022/05/22 08:45:19;;;;;;;4.00;2.53;;;22.30;81.90;;;;;;4975488;28;20031;-80
2022/05/22 08:48:29;;;;;;;5.40;2.30;;;22.20;81.30;;;;;;4980923;28;20039;-80
2022/05/22 08:50:58;;;;;;;6.68;2.67;;;22.10;82.60;;;;;;4918577;29;20396;-79
2022/05/22 08:53:24;;;;;;;6.93;2.40;;;22.20;81.10;;;;;;4918893;29;20028;-80
2022/05/22 08:59:01;;;;;;;7.13;2.70;;;22.10;81.00;;;;;;4964442;28;20557;-81
2022/05/22 09:01:36;;;;;;;5.97;2.20;;;21.90;80.90;;;;;;4972859;28;20023;-80
2022/05/22 09:04:32;;;;;;;4.82;2.53;;;21.90;80.40;;;;;;4966056;29;20055;-81
2022/05/22 09:07:19;;;;;;;3.90;1.90;;;21.60;80.20;;;;;;4969471;29;20035;-80
2022/05/22 09:09:50;;;;;;;6.70;2.30;;;21.30;80.00;;;;;;4971836;29;20027;-79
2022/05/22 09:12:49;;;;;;;6.53;2.20;;;21.20;80.50;;;;;;4976325;28;20027;-83
2022/05/22 09:15:34;;;;;;;6.13;2.10;;;21.20;81.40;;;;;;4991347;28;20031;-83
2022/05/22 09:18:29;;;;;;;8.07;2.10;;;21.30;81.40;;;;;;4994270;28;20039;-83
2022/05/22 09:21:13;;;;;;;7.32;2.47;;;21.50;80.80;;;;;;4994809;28;20050;-83
2022/05/22 09:24:02;;;;;;;8.15;2.22;;;21.60;81.10;;;;;;4990302;28;20047;-83
2022/05/22 09:26:52;;;;;;;5.00;2.53;;;21.60;81.30;;;;;;4986458;28;20038;-84
2022/05/22 09:29:42;;;;;;;8.75;3.05;;;21.50;79.60;;;;;;4985291;28;20034;-84
2022/05/22 09:32:39;;;;;;;6.15;2.03;;;21.20;79.60;;;;;;4987243;28;20031;-85
2022/05/22 09:35:30;;;;;;;8.25;2.30;;;21.20;80.50;;;;;;4988000;28;20035;-83
2022/05/22 09:38:46;;;;;;;6.20;2.20;;;21.70;80.60;;;;;;4993286;28;20039;-82
2022/05/22 09:41:33;;;;;;;6.55;2.08;;;22.30;79.70;;;;;;4936171;29;20048;-82
2022/05/22 09:44:27;;;;;;;8.27;2.38;;;23.00;78.00;;;;;;4984282;28;20051;-85
2022/05/22 09:47:14;;;;;;;4.30;2.10;;;22.80;77.30;;;;;;4987477;28;20082;-84
2022/05/22 09:49:40;;;;;;;6.05;2.35;;;22.70;77.50;;;;;;4986957;28;20019;-85
2022/05/22 09:52:31;;;;;;;5.18;2.20;;;23.50;77.20;;;;;;4997662;28;20095;-84
2022/05/22 09:55:51;;;;;;;2.88;1.60;;;24.40;74.90;;;;;;4984868;28;20042;-84
2022/05/22 09:58:40;;;;;;;5.43;2.00;;;24.90;72.10;;;;;;4946636;29;20059;-85
2022/05/22 10:01:18;;;;;;;7.05;2.20;;;25.30;71.30;;;;;;4969305;29;20059;-85
2022/05/22 10:03:58;;;;;;;4.60;1.83;;;25.40;70.90;;;;;;4969545;28;20043;-85
2022/05/22 10:06:33;;;;;;;3.75;1.60;;;26.50;69.70;;;;;;4971318;28;20095;-85
2022/05/22 10:09:33;;;;;;;6.50;1.88;;;27.50;67.30;;;;;;4971810;28;20070;-85
2022/05/22 10:12:10;;;;;;;4.80;1.73;;;29.10;65.60;;;;;;4963247;28;20023;-84
2022/05/22 10:15:07;;;;;;;9.65;1.90;;;30.50;63.20;;;;;;4964206;28;20035;-83
2022/05/22 10:17:51;;;;;;;4.47;1.67;;;31.20;61.10;;;;;;4968170;28;20035;-82
2022/05/22 10:20:36;;;;;;;4.65;1.73;;;32.30;58.60;;;;;;4972353;28;20043;-84
2022/05/22 10:23:36;;;;;;;5.22;1.55;;;33.20;57.10;;;;;;4969072;28;20050;-81
2022/05/22 10:26:13;;;;;;;5.07;1.80;;;32.10;56.10;;;;;;4971333;28;20122;-81
2022/05/22 10:28:47;;;;;;;9.05;2.08;;;30.50;57.60;;;;;;4983083;28;20039;-82
2022/05/22 10:31:22;;;;;;;5.68;1.70;;;30.00;58.10;;;;;;4987395;28;20035;-84
2022/05/22 10:34:28;;;;;;;5.80;2.17;;;29.80;58.90;;;;;;4991188;28;20062;-84
2022/05/22 10:37:00;;;;;;;3.67;1.70;;;31.20;57.60;;;;;;4995957;28;20030;-84
2022/05/22 10:39:26;;;;;;;3.58;1.60;;;32.40;55.90;;;;;;4995942;28;20027;-83
2022/05/22 10:44:49;;;;;;;2.63;1.40;;;33.20;53.00;;;;;;4984693;28;20042;-84
2022/05/22 10:47:26;;;;;;;2.45;1.20;;;33.40;52.50;;;;;;4994139;28;20037;-84
2022/05/22 10:49:51;;;;;;;4.30;1.52;;;34.80;51.50;;;;;;5029599;28;20056;-84
2022/05/22 10:52:33;;;;;;;3.00;1.45;;;34.80;50.40;;;;;;4998395;28;20023;-83
2022/05/22 10:55:01;;;;;;;4.05;1.60;;;35.50;49.70;;;;;;4993044;28;20046;-85
2022/05/22 10:57:30;;;;;;;5.60;1.50;;;35.50;48.80;;;;;;5018949;28;20023;-86
2022/05/22 11:00:13;;;;;;;4.25;1.88;;;35.20;49.00;;;;;;5014987;28;20019;-83
2022/05/22 11:02:39;;;;;;;3.40;1.35;;;35.30;49.10;;;;;;4984514;28;20049;-84
2022/05/22 11:05:19;;;;;;;3.25;1.70;;;35.70;48.80;;;;;;4987538;28;20086;-83
2022/05/22 11:07:48;;;;;;;6.28;1.63;;;36.30;48.50;;;;;;4988557;28;20031;-83
2022/05/22 11:10:20;;;;;;;3.78;1.73;;;36.90;47.50;;;;;;4987937;28;20053;-83
2022/05/22 11:12:58;;;;;;;3.65;1.45;;;36.90;47.00;;;;;;4990944;28;20075;-83
2022/05/22 11:15:37;;;;;;;3.17;1.55;;;35.80;47.00;;;;;;4991165;28;20053;-83
2022/05/22 11:18:18;;;;;;;7.97;1.87;;;34.30;47.80;;;;;;4996757;28;20019;-82
2022/05/22 11:20:50;;;;;;;4.50;1.92;;;33.30;48.80;;;;;;4999014;28;20110;-83
2022/05/22 11:23:28;;;;;;;3.25;1.48;;;32.90;49.20;;;;;;4981735;28;20086;-83
2022/05/22 11:26:13;;;;;;;3.33;1.55;;;33.10;49.00;;;;;;4999183;28;20026;-83
2022/05/22 11:28:52;;;;;;;4.53;1.70;;;33.90;48.90;;;;;;4999076;28;20059;-82
2022/05/22 11:31:21;;;;;;;3.97;1.35;;;34.80;48.40;;;;;;4988572;28;20375;-83
2022/05/22 11:34:15;;;;;;;5.63;1.70;;;35.90;47.60;;;;;;4969595;28;20026;-83
2022/05/22 11:36:53;;;;;;;3.95;1.60;;;36.50;46.30;;;;;;4991827;28;20042;-82
2022/05/22 11:39:29;;;;;;;3.35;1.52;;;37.40;46.10;;;;;;4993211;28;20058;-83
2022/05/22 11:42:26;;;;;;;5.88;1.80;;;37.10;45.90;;;;;;4990014;28;20450;-84
2022/05/22 11:45:32;;;;;;;2.97;1.40;;;36.30;46.60;;;;;;4973022;28;20109;-84
2022/05/22 11:48:13;;;;;;;4.82;1.50;;;37.80;45.50;;;;;;4975319;28;20027;-84
2022/05/22 11:51:05;;;;;;;3.30;1.48;;;37.90;44.80;;;;;;4979917;28;20094;-82
2022/05/22 11:54:04;;;;;;;7.38;1.50;;;38.30;44.90;;;;;;5001749;28;20038;-83
2022/05/22 11:57:06;;;;;;;6.47;1.40;;;38.50;43.90;;;;;;4987675;28;20015;-83
2022/05/22 11:59:56;;;;;;;5.18;1.77;;;37.90;44.20;;;;;;4987823;28;20042;-83
2022/05/22 12:02:29;;;;;;;2.47;1.52;;;36.90;44.50;;;;;;4986015;28;20023;-82
2022/05/22 12:05:22;;;;;;;5.30;1.60;;;36.00;45.00;;;;;;5015822;28;20090;-82
2022/05/22 12:08:30;;;;;;;5.05;1.70;;;36.60;45.20;;;;;;4989392;28;20043;-84
2022/05/22 12:11:12;;;;;;;5.88;1.60;;;37.50;44.90;;;;;;4990552;28;20015;-83
2022/05/22 12:13:48;;;;;;;5.72;1.83;;;36.80;44.00;;;;;;4984946;28;20023;-83
2022/05/22 12:16:24;;;;;;;4.60;1.77;;;36.30;44.70;;;;;;4980910;28;20023;-83
2022/05/22 12:19:18;;;;;;;5.45;1.73;;;36.60;44.60;;;;;;4985197;28;20055;-83
2022/05/22 12:21:57;;;;;;;4.93;1.40;;;37.70;44.30;;;;;;4987131;28;20027;-83
2022/05/22 12:24:51;;;;;;;3.53;1.50;;;38.40;44.00;;;;;;4987675;28;20074;-84
2022/05/22 12:27:28;;;;;;;2.88;1.45;;;39.00;43.30;;;;;;4989922;28;20049;-83
2022/05/22 12:30:00;;;;;;;2.85;1.40;;;39.20;43.00;;;;;;4988189;28;20015;-82
2022/05/22 12:32:28;;;;;;;5.00;1.58;;;39.10;42.90;;;;;;4988385;28;20022;-84
2022/05/22 12:34:57;;;;;;;7.47;2.30;;;39.50;42.40;;;;;;4990871;28;20110;-84
2022/05/22 12:37:34;;;;;;;3.17;1.83;;;39.60;43.10;;;;;;4981459;28;20050;-83
2022/05/22 12:40:22;;;;;;;6.32;1.80;;;39.50;43.00;;;;;;4992538;28;20038;-83
2022/05/22 12:42:52;;;;;;;4.85;1.50;;;39.70;42.90;;;;;;4994603;28;20055;-82
2022/05/22 12:45:21;;;;;;;4.57;1.60;;;39.60;43.00;;;;;;4989762;28;20046;-83
2022/05/22 12:47:50;;;;;;;5.47;1.92;;;40.10;41.70;;;;;;4993886;28;20015;-85
2022/05/22 12:50:35;;;;;;;5.97;2.33;;;39.90;41.80;;;;;;4992249;28;20078;-89
2022/05/22 12:53:01;;;;;;;3.30;1.35;;;39.90;42.80;;;;;;5006082;28;20030;-85
2022/05/22 12:55:34;;;;;;;2.85;1.60;;;40.30;42.80;;;;;;4984186;28;20035;-82
2022/05/22 12:58:02;;;;;;;4.07;1.60;;;40.40;41.80;;;;;;4970253;28;20038;-85
2022/05/22 13:00:47;;;;;;;4.85;1.48;;;40.20;41.80;;;;;;4985983;28;20168;-83
2022/05/22 13:03:26;;;;;;;4.25;1.80;;;39.90;42.00;;;;;;4983642;28;20086;-83
2022/05/22 13:06:02;;;;;;;2.80;1.38;;;40.10;42.10;;;;;;4993765;28;20050;-84
2022/05/22 13:08:35;;;;;;;5.20;1.40;;;39.90;42.10;;;;;;4990942;28;20074;-84
2022/05/22 13:11:09;;;;;;;2.17;1.50;;;40.10;41.60;;;;;;4992110;28;20034;-84
2022/05/22 13:13:38;;;;;;;;;;;40.20;41.60;;;;;;4984140;28;20042;-83
2022/05/22 13:16:08;;;;;;;5.57;1.80;;;40.00;41.50;;;;;;4992656;28;19937;-84
2022/05/22 13:18:46;;;;;;;1.70;1.20;;;40.00;41.00;;;;;;4973090;28;20035;-82
2022/05/22 13:21:37;;;;;;;2.72;1.25;;;39.60;41.20;;;;;;4984163;28;20035;-83
2022/05/22 13:24:19;;;;;;;2.63;1.25;;;39.50;41.40;;;;;;4996182;28;20043;-83
2022/05/22 13:27:29;;;;;;;4.93;1.70;;;39.20;41.50;;;;;;4998628;28;20037;-85
2022/05/22 13:30:24;;;;;;;8.15;1.90;;;40.00;41.30;;;;;;4998661;28;20029;-85
2022/05/22 13:33:02;;;;;;;3.08;1.40;;;40.50;41.20;;;;;;4986274;28;20031;-84
2022/05/22 13:35:35;;;;;;;4.20;1.70;;;40.20;41.10;;;;;;4981522;28;20027;-85
2022/05/22 13:38:01;;;;;;;2.10;1.38;;;39.10;41.30;;;;;;4992292;28;20046;-84
2022/05/22 13:40:46;;;;;;;5.82;1.35;;;38.50;41.80;;;;;;5014252;28;20034;-83
2022/05/22 13:43:17;;;;;;;2.95;1.50;;;38.50;41.70;;;;;;4994657;28;20078;-83
2022/05/22 13:46:05;;;;;;;3.13;1.60;;;38.60;42.10;;;;;;4979027;28;20098;-83
2022/05/22 13:49:11;;;;;;;3.38;1.60;;;38.90;41.70;;;;;;4991965;28;20106;-82